Time;durP1;ratioP1;P1;durP2;ratioP2;P2;SDS_P1;SDS_P2;PMS_P1;PMS_P2;Temp;Humidity;BMP_temperature;BMP_pressure;BME280_temperature;BME280_humidity;BME280_pressure;Samples;Min_cycle;Max_cycle;Signal;HPM_P1;HPM_P2
2023/01/11 00:02:05;;;;;;;2.95;1.30;;;;;;;19.42;43.99;101597.13;5037027;28;20069;-55
2023/01/11 00:04:32;;;;;;;3.03;1.33;;;;;;;19.42;43.65;101594.44;5036960;28;20476;-56
2023/01/11 00:07:00;;;;;;;5.25;1.17;;;;;;;19.41;43.31;101593.59;5037999;28;20537;-55
2023/01/11 00:09:27;;;;;;;3.05;1.00;;;;;;;19.40;43.52;101591.00;5037572;28;20053;-48
2023/01/11 00:11:54;;;;;;;5.10;1.30;;;;;;;19.41;43.46;101600.78;5037469;28;20476;-48
2023/01/11 00:14:22;;;;;;;2.17;1.08;;;;;;;19.39;43.44;101606.25;5037288;28;20049;-48
2023/01/11 00:16:49;;;;;;;2.13;0.90;;;;;;;19.39;43.61;101613.47;5037349;28;20057;-51
2023/01/11 00:19:16;;;;;;;1.75;0.82;;;;;;;19.38;43.53;101612.59;5037622;28;20054;-50
2023/01/11 00:21:44;;;;;;;3.97;1.30;;;;;;;19.37;43.41;101612.72;5037616;28;20049;-50
2023/01/11 00:24:11;;;;;;;2.53;1.23;;;;;;;19.36;43.51;101609.16;5037147;28;20049;-49
2023/01/11 00:26:38;;;;;;;2.30;0.98;;;;;;;19.36;43.29;101613.69;5037191;28;20065;-50
2023/01/11 00:29:05;;;;;;;3.15;1.13;;;;;;;19.35;43.35;101609.28;5036781;28;20045;-55
2023/01/11 00:31:33;;;;;;;3.15;1.00;;;;;;;19.35;43.65;101604.78;5036984;28;20056;-55
2023/01/11 00:34:00;;;;;;;2.03;1.08;;;;;;;19.34;43.60;101603.06;5037003;28;20049;-55
2023/01/11 00:36:27;;;;;;;3.05;1.10;;;;;;;19.34;43.55;101610.25;5037024;28;20056;-56
2023/01/11 00:38:54;;;;;;;2.28;1.23;;;;;;;19.33;43.46;101598.66;5037192;28;20049;-55
2023/01/11 00:49:42;;;;;;;2.40;1.15;;;;;;;19.32;43.20;101605.00;5037045;28;20383;-55
2023/01/11 00:52:10;;;;;;;2.30;0.93;;;;;;;19.32;43.49;101604.13;5036677;28;20052;-55
2023/01/11 00:54:38;;;;;;;3.17;1.27;;;;;;;19.33;43.36;101611.25;5036625;28;20410;-55
2023/01/11 00:57:06;;;;;;;2.33;1.13;;;;;;;19.32;43.47;101607.66;5036711;28;20045;-55
2023/01/11 00:59:35;;;;;;;2.10;0.98;;;;;;;19.31;43.52;101610.47;5036807;28;20046;-55
2023/01/11 01:02:03;;;;;;;3.13;1.10;;;;;;;19.30;43.54;101606.94;5035486;28;20492;-55
2023/01/11 01:04:30;;;;;;;2.28;0.98;;;;;;;19.31;43.37;101618.53;5036492;28;20056;-55
2023/01/11 01:06:57;;;;;;;1.73;0.70;;;;;;;19.31;43.33;101621.22;5036462;28;20411;-55
2023/01/11 01:09:25;;;;;;;3.03;1.05;;;;;;;19.30;43.27;101619.50;5036426;28;20472;-51
2023/01/11 01:11:52;;;;;;;3.05;1.10;;;;;;;19.27;43.42;101613.38;5036192;28;20068;-52
2023/01/11 01:14:29;;;;;;;3.13;0.85;;;;;;;19.28;43.34;101611.56;5036295;28;20404;-50
2023/01/11 01:17:02;;;;;;;3.92;1.10;;;;;;;19.29;43.40;101618.66;5036012;28;20072;-51
2023/01/11 01:19:31;;;;;;;2.38;1.25;;;;;;;19.29;43.33;101615.13;5036418;28;20049;-48
2023/01/11 01:21:58;;;;;;;2.72;1.23;;;;;;;19.27;43.36;101604.47;5036018;28;20053;-48
2023/01/11 01:24:29;;;;;;;3.65;0.90;;;;;;;19.27;43.11;101608.00;5036064;28;20050;-52
2023/01/11 01:26:57;;;;;;;2.40;0.95;;;;;;;19.26;43.31;101603.63;5036035;28;20388;-48
2023/01/11 01:29:25;;;;;;;1.60;0.80;;;;;;;19.26;43.29;101602.78;5035995;28;20046;-49
2023/01/11 01:31:52;;;;;;;2.30;1.10;;;;;;;19.25;43.31;101599.22;5035506;28;20034;-47
2023/01/11 01:34:19;;;;;;;1.98;0.90;;;;;;;19.25;43.43;101601.06;5035749;28;20042;-48
2023/01/11 01:36:47;;;;;;;2.50;0.80;;;;;;;19.25;43.46;101593.00;5035747;28;20052;-47
2023/01/11 01:39:14;;;;;;;3.80;1.10;;;;;;;19.25;43.36;101598.38;5035906;28;20499;-54
2023/01/11 01:41:41;;;;;;;2.72;1.00;;;;;;;19.24;43.22;101602.91;5035542;28;20046;-54
2023/01/11 01:44:46;;;;;;;2.22;1.00;;;;;;;19.23;43.29;101601.16;5035642;28;20053;-54
2023/01/11 01:47:14;;;;;;;2.50;0.95;;;;;;;19.24;43.13;101607.38;5035379;28;20045;-54
2023/01/11 01:49:43;;;;;;;2.00;0.80;;;;;;;19.24;43.12;101612.75;5035850;28;20057;-49
2023/01/11 01:52:12;;;;;;;2.08;0.98;;;;;;;19.24;43.17;101604.69;5035446;28;20407;-48
2023/01/11 01:54:43;;;;;;;2.10;0.80;;;;;;;19.23;43.11;101605.66;5035234;28;20049;-49
2023/01/11 01:57:19;;;;;;;2.33;0.77;;;;;;;19.22;43.27;101607.50;5035598;28;20053;-47
2023/01/11 01:59:50;;;;;;;1.90;0.90;;;;;;;19.23;43.21;101603.00;5035348;28;20045;-54
2023/01/11 02:02:22;;;;;;;1.70;0.93;;;;;;;19.24;43.07;101604.69;5035215;28;20049;-55
2023/01/11 02:04:55;;;;;;;2.25;0.98;;;;;;;19.23;43.18;101609.22;5035069;28;20053;-51
2023/01/11 02:07:27;;;;;;;1.90;0.63;;;;;;;19.23;43.28;101597.63;5035386;28;20376;-55
2023/01/11 02:10:09;;;;;;;2.30;1.15;;;;;;;19.23;43.06;101595.78;5035513;28;20049;-47
2023/01/11 02:12:46;;;;;;;2.00;0.88;;;;;;;19.22;43.30;101591.41;5035367;28;20045;-49
2023/01/11 02:15:15;;;;;;;1.63;0.85;;;;;;;19.22;43.14;101585.16;5034918;28;20045;-49
2023/01/11 02:17:43;;;;;;;2.92;0.98;;;;;;;19.21;42.98;101578.94;5034717;28;20061;-49
2023/01/11 02:20:54;;;;;;;2.83;1.10;;;;;;;19.22;42.95;101585.16;5033872;28;20065;-54
2023/01/11 02:23:45;;;;;;;2.35;0.90;;;;;;;19.22;43.25;101585.16;5033432;28;20057;-53
2023/01/11 02:26:40;;;;;;;2.35;0.98;;;;;;;19.20;43.07;101579.94;5035078;28;20056;-54
2023/01/11 02:29:11;;;;;;;1.45;0.60;;;;;;;19.21;43.13;101576.25;5034951;28;20064;-54
2023/01/11 02:31:48;;;;;;;2.63;1.13;;;;;;;19.21;42.81;101573.59;5034688;28;20480;-53
2023/01/11 02:34:47;;;;;;;3.15;0.90;;;;;;;19.21;43.20;101572.72;5034953;28;20045;-54
2023/01/11 02:37:40;;;;;;;2.03;0.90;;;;;;;19.21;43.05;101572.72;5034863;28;20045;-53
2023/01/11 02:40:17;;;;;;;2.13;1.00;;;;;;;19.19;42.96;101572.81;5034973;28;20057;-47
2023/01/11 02:45:58;;;;;;;2.30;0.93;;;;;;;19.19;43.12;101580.88;5034673;28;20459;-47
2023/01/11 02:48:36;;;;;;;3.40;0.90;;;;;;;19.19;43.09;101582.72;5035000;28;20056;-54
2023/01/11 02:51:13;;;;;;;3.35;0.90;;;;;;;19.18;43.16;101583.69;5034369;28;20046;-55
2023/01/11 02:54:04;;;;;;;2.03;0.75;;;;;;;19.18;43.02;101587.22;5034519;28;20056;-55
2023/01/11 02:56:37;;;;;;;2.50;0.95;;;;;;;19.18;43.08;101578.31;5034359;28;20060;-55
2023/01/11 02:59:10;;;;;;;2.35;1.00;;;;;;;19.17;43.07;101577.47;5034464;28;20049;-51
2023/01/11 03:01:54;;;;;;;1.65;0.70;;;;;;;19.17;42.95;101577.47;5034480;28;20495;-49
2023/01/11 03:04:26;;;;;;;1.48;0.88;;;;;;;19.17;43.16;101571.25;5034287;28;20052;-51
2023/01/11 03:06:58;;;;;;;2.78;1.08;;;;;;;19.16;43.02;101566.81;5034336;28;20057;-51
2023/01/11 03:09:37;;;;;;;2.13;1.03;;;;;;;19.15;42.92;101552.53;5034468;28;20056;-48
2023/01/11 03:15:46;;;;;;;2.75;1.20;;;;;;;19.15;42.87;101551.69;5043486;28;20068;-49
2023/01/11 03:18:17;;;;;;;2.05;0.90;;;;;;;19.15;42.87;101559.75;5034158;28;20471;-49
2023/01/11 03:20:55;;;;;;;2.17;1.23;;;;;;;19.14;42.78;101566.94;5033783;28;20061;-49
2023/01/11 03:23:32;;;;;;;3.38;0.80;;;;;;;19.15;42.73;101568.66;5033436;28;20046;-49
2023/01/11 03:26:33;;;;;;;1.83;0.70;;;;;;;19.14;43.00;101572.31;5032978;28;20049;-49
2023/01/11 03:29:09;;;;;;;1.58;0.75;;;;;;;19.14;42.80;101572.31;5034172;28;20050;-48
2023/01/11 03:31:48;;;;;;;2.53;1.10;;;;;;;19.13;42.89;101572.44;5033905;28;20384;-47
2023/01/11 03:34:27;;;;;;;1.80;0.82;;;;;;;19.14;42.89;101571.47;5033930;28;20068;-51
2023/01/11 03:37:04;;;;;;;2.03;0.73;;;;;;;19.14;42.94;101566.09;5033979;28;20050;-50
2023/01/11 03:39:41;;;;;;;1.70;0.63;;;;;;;19.13;42.85;101565.25;5034034;28;20053;-49
2023/01/11 03:42:14;;;;;;;2.63;1.38;;;;;;;19.13;43.04;101559.88;5033498;28;20053;-48
2023/01/11 03:44:45;;;;;;;1.80;0.77;;;;;;;19.13;42.95;101575.13;5033575;28;20050;-49
2023/01/11 03:47:16;;;;;;;2.47;1.08;;;;;;;19.12;43.00;101571.59;5033512;28;20468;-49
2023/01/11 03:50:01;;;;;;;1.52;0.77;;;;;;;19.13;43.14;101573.28;5033981;28;20076;-48
2023/01/11 03:52:34;;;;;;;2.70;1.00;;;;;;;19.13;43.06;101570.59;5033618;28;20041;-49
2023/01/11 03:55:05;;;;;;;2.63;0.93;;;;;;;19.12;43.11;101560.84;5033663;28;20060;-49
2023/01/11 03:57:36;;;;;;;1.92;0.95;;;;;;;19.12;43.07;101552.78;5033333;28;20049;-56
2023/01/11 04:00:06;;;;;;;2.00;1.20;;;;;;;19.11;43.13;101544.84;5033350;28;20096;-48
2023/01/11 04:02:38;;;;;;;2.40;1.17;;;;;;;19.11;43.12;101551.06;5033163;28;20045;-52
2023/01/11 04:05:09;;;;;;;2.55;0.80;;;;;;;19.10;42.88;101543.97;5033309;28;20046;-49
2023/01/11 04:07:38;;;;;;;4.80;1.40;;;;;;;19.11;43.12;101553.75;5033478;28;20049;-56
2023/01/11 04:10:06;;;;;;;1.50;0.90;;;;;;;19.11;42.92;101558.25;5033358;28;20400;-56
2023/01/11 04:12:33;;;;;;;2.38;0.93;;;;;;;19.11;42.99;101558.25;5033368;28;20541;-54
2023/01/11 04:15:04;;;;;;;2.70;0.75;;;;;;;19.10;43.10;101560.09;5033409;28;20072;-56
2023/01/11 04:17:31;;;;;;;1.83;0.90;;;;;;;19.10;42.84;101562.78;5033531;28;20380;-55
2023/01/11 04:20:01;;;;;;;2.10;1.00;;;;;;;19.10;42.89;101560.09;5033512;28;20053;-56
2023/01/11 04:22:28;;;;;;;1.70;0.80;;;;;;;19.10;43.13;101561.91;5033440;28;20068;-56
2023/01/11 04:24:55;;;;;;;2.22;0.77;;;;;;;19.10;43.13;101569.97;5033199;28;20049;-56
2023/01/11 04:27:22;;;;;;;2.30;0.90;;;;;;;19.09;43.00;101560.22;5033371;28;20053;-56
2023/01/11 04:29:50;;;;;;;2.15;0.88;;;;;;;19.08;43.00;101572.78;5033458;28;20049;-49
2023/01/11 04:32:17;;;;;;;1.85;0.90;;;;;;;19.08;43.06;101569.22;5033193;28;20052;-47
2023/01/11 04:34:44;;;;;;;2.53;1.05;;;;;;;19.07;43.06;101568.34;5032940;28;20053;-50
2023/01/11 04:37:12;;;;;;;1.88;0.90;;;;;;;19.08;42.95;101578.16;5035783;28;20049;-48
2023/01/11 04:39:39;;;;;;;3.25;1.05;;;;;;;19.07;42.92;101572.88;5036698;28;20053;-55
2023/01/11 04:42:18;;;;;;;2.60;1.15;;;;;;;19.07;42.77;101584.47;5036800;28;20056;-54
2023/01/11 04:44:48;;;;;;;3.05;1.13;;;;;;;19.05;42.81;101573.00;5036948;28;20049;-53
2023/01/11 04:47:17;;;;;;;1.65;0.90;;;;;;;19.06;42.80;101574.69;5036932;28;20052;-56
2023/01/11 04:49:44;;;;;;;2.10;0.90;;;;;;;19.07;42.87;101584.47;5036996;28;20372;-55
2023/01/11 04:52:14;;;;;;;2.78;0.88;;;;;;;19.05;43.05;101578.38;5036730;28;20490;-52
2023/01/11 04:54:43;;;;;;;3.33;1.08;;;;;;;19.05;42.89;101578.38;5036426;28;20045;-55
2023/01/11 04:57:12;;;;;;;2.67;1.00;;;;;;;19.06;42.68;101581.91;5036618;28;20045;-56
2023/01/11 04:59:39;;;;;;;2.05;0.80;;;;;;;19.05;42.92;101578.38;5036606;28;20049;-55
2023/01/11 05:02:06;;;;;;;3.10;1.00;;;;;;;19.05;42.75;101588.25;5036591;28;20048;-56
2023/01/11 05:04:34;;;;;;;2.75;1.00;;;;;;;19.05;42.74;101577.50;5036543;28;20045;-55
2023/01/11 05:07:01;;;;;;;2.65;1.05;;;;;;;19.04;42.82;101584.72;5036495;28;20045;-55
2023/01/11 05:09:29;;;;;;;1.63;0.90;;;;;;;19.05;42.85;101561.41;5036385;28;20065;-56
2023/01/11 05:11:56;;;;;;;2.15;1.00;;;;;;;19.03;42.97;101578.44;5036140;28;20049;-55
2023/01/11 05:14:23;;;;;;;3.05;0.90;;;;;;;19.05;42.93;101577.50;5036246;28;20057;-55
2023/01/11 05:16:51;;;;;;;2.00;0.73;;;;;;;19.06;42.83;101589.94;5036208;28;20052;-55
2023/01/11 05:19:18;;;;;;;3.28;0.85;;;;;;;19.03;42.94;101573.09;5036280;28;20053;-54
2023/01/11 05:21:45;;;;;;;3.17;0.90;;;;;;;19.03;42.86;101570.41;5036068;28;20046;-55
2023/01/11 05:24:14;;;;;;;1.70;0.82;;;;;;;19.03;43.14;101575.78;5036070;28;20045;-55
2023/01/11 05:26:43;;;;;;;2.28;0.70;;;;;;;19.05;43.13;101572.13;5034441;28;20058;-55
2023/01/11 05:29:15;;;;;;;2.47;0.82;;;;;;;19.04;43.30;101576.66;5036051;28;20045;-52
2023/01/11 05:31:42;;;;;;;2.10;0.52;;;;;;;19.04;43.44;101576.66;5035497;28;20045;-47
2023/01/11 05:34:12;;;;;;;2.25;1.02;;;;;;;19.04;43.39;101576.66;5035948;28;20048;-47
2023/01/11 05:36:40;;;;;;;3.75;0.82;;;;;;;19.03;43.58;101582.97;5036018;28;20072;-50
2023/01/11 05:39:09;;;;;;;2.13;0.70;;;;;;;19.04;43.52;101587.38;5036073;28;20369;-48
2023/01/11 05:41:37;;;;;;;1.90;0.73;;;;;;;19.04;43.52;101576.66;5035674;28;20050;-49
2023/01/11 05:46:50;;;;;;;1.98;0.70;;;;;;;19.05;43.52;101567.63;5035221;28;20057;-49
2023/01/11 05:49:17;;;;;;;2.33;0.80;;;;;;;19.03;43.48;101569.56;5035377;28;20049;-54
2023/01/11 05:51:45;;;;;;;3.72;1.00;;;;;;;19.05;43.62;101574.81;5035315;28;20046;-56
2023/01/11 05:54:13;;;;;;;7.10;1.30;;;;;;;19.03;43.51;101575.78;5035541;28;20053;-54
2023/01/11 05:56:42;;;;;;;2.55;0.88;;;;;;;19.03;43.48;101569.56;5035402;28;20415;-54
2023/01/11 05:59:09;;;;;;;1.90;0.80;;;;;;;19.03;43.50;101561.50;5035677;28;20472;-47
2023/01/11 06:01:37;;;;;;;2.47;0.90;;;;;;;19.02;43.48;101565.16;5035414;28;20041;-48
2023/01/11 06:04:05;;;;;;;2.00;0.93;;;;;;;19.03;43.34;101569.56;5035138;28;20053;-49
2023/01/11 06:06:32;;;;;;;2.00;0.98;;;;;;;19.02;43.55;101562.47;5034929;28;20060;-48
2023/01/11 06:09:00;;;;;;;2.78;0.90;;;;;;;19.01;43.52;101569.69;5035316;28;20072;-54
2023/01/11 06:11:27;;;;;;;3.75;0.95;;;;;;;19.01;43.53;101567.00;5034910;28;20046;-53
2023/01/11 06:13:54;;;;;;;2.15;1.08;;;;;;;19.02;43.51;101571.38;5034999;28;20068;-55
2023/01/11 06:16:22;;;;;;;1.77;0.80;;;;;;;19.02;43.55;101565.16;5035109;28;20052;-54
2023/01/11 06:18:51;;;;;;;4.40;1.30;;;;;;;19.02;43.39;101565.16;5035250;28;20060;-54
2023/01/11 06:21:19;;;;;;;2.13;1.05;;;;;;;19.02;43.50;101557.09;5035056;28;20046;-55
2023/01/11 06:23:49;;;;;;;2.67;0.73;;;;;;;19.01;43.49;101558.94;5034880;28;20376;-52
2023/01/11 06:26:19;;;;;;;2.03;0.85;;;;;;;19.02;43.41;101549.06;5034993;28;20045;-54
2023/01/11 06:28:47;;;;;;;2.08;0.75;;;;;;;19.01;43.53;101550.03;5035438;28;20049;-52
2023/01/11 06:31:15;;;;;;;2.88;1.08;;;;;;;19.00;43.49;101546.50;5034859;28;20060;-55
2023/01/11 06:33:45;;;;;;;2.03;0.95;;;;;;;19.01;43.37;101544.66;5034675;28;20045;-56
2023/01/11 06:36:13;;;;;;;2.35;0.90;;;;;;;19.01;43.59;101544.66;5034684;28;20056;-54
2023/01/11 06:38:41;;;;;;;1.92;0.60;;;;;;;19.00;43.56;101543.81;5035214;28;20053;-49
2023/01/11 06:41:10;;;;;;;3.13;0.90;;;;;;;19.00;43.63;101540.28;5034327;28;20400;-50
2023/01/11 06:43:40;;;;;;;1.98;0.80;;;;;;;19.00;43.40;101538.44;5034191;28;20046;-52
2023/01/11 06:46:13;;;;;;;3.80;1.08;;;;;;;18.99;43.42;101536.72;5034272;28;20049;-54
2023/01/11 06:48:41;;;;;;;2.00;0.80;;;;;;;18.99;43.29;101533.19;5034741;28;20049;-49
2023/01/11 06:51:10;;;;;;;3.08;1.05;;;;;;;18.98;43.28;101532.31;5034200;28;20046;-49
2023/01/11 06:53:39;;;;;;;2.85;1.08;;;;;;;18.99;43.58;101522.44;5034009;28;20045;-48
2023/01/11 06:56:09;;;;;;;1.90;0.88;;;;;;;18.98;43.42;101523.41;5034081;28;20046;-48
2023/01/11 06:58:37;;;;;;;2.55;1.17;;;;;;;18.98;43.56;101526.97;5033828;28;20082;-49
2023/01/11 07:01:05;;;;;;;2.22;0.90;;;;;;;18.98;43.68;101539.53;5034143;28;20053;-50
2023/01/11 07:03:32;;;;;;;2.28;0.70;;;;;;;18.97;43.83;101538.66;5034087;28;20061;-48
2023/01/11 07:06:00;;;;;;;1.85;0.95;;;;;;;18.98;43.73;101534.16;5034052;28;20121;-50
2023/01/11 07:08:27;;;;;;;2.17;1.17;;;;;;;18.98;43.78;101542.19;5034568;28;20045;-55
2023/01/11 07:10:55;;;;;;;2.58;1.08;;;;;;;18.97;43.92;101535.13;5034197;28;20060;-56
2023/01/11 07:13:22;;;;;;;3.58;1.20;;;;;;;18.98;43.81;101547.56;5034134;28;20383;-55
2023/01/11 07:15:52;;;;;;;2.42;1.23;;;;;;;18.98;43.92;101544.88;5033993;28;20045;-55
2023/01/11 07:18:21;;;;;;;2.20;0.90;;;;;;;18.97;44.24;101538.66;5034156;28;20068;-47
2023/01/11 07:20:50;;;;;;;2.58;0.77;;;;;;;18.98;44.03;101543.06;5033899;28;20056;-48
2023/01/11 07:23:18;;;;;;;2.45;0.95;;;;;;;18.97;43.81;101546.72;5033898;28;20372;-50
2023/01/11 07:25:47;;;;;;;2.45;1.15;;;;;;;18.96;43.61;101550.38;5032720;28;20049;-48
2023/01/11 07:28:14;;;;;;;3.38;1.15;;;;;;;18.97;43.74;101552.09;5033965;28;20060;-51
2023/01/11 07:30:42;;;;;;;3.38;1.02;;;;;;;18.97;43.45;101560.13;5033437;28;20053;-50
2023/01/11 07:33:26;;;;;;;3.25;1.00;;;;;;;18.97;44.01;101575.38;5033391;28;20484;-50
2023/01/11 07:35:54;;;;;;;2.70;1.35;;;;;;;18.97;43.95;101580.75;5033541;28;20049;-50
2023/01/11 07:38:22;;;;;;;2.45;0.90;;;;;;;18.97;44.05;101589.66;5034599;28;20064;-50
2023/01/11 07:40:49;;;;;;;2.90;1.08;;;;;;;18.97;43.99;101580.75;5033737;28;20050;-50
2023/01/11 07:43:21;;;;;;;2.08;1.00;;;;;;;18.98;44.05;101577.09;5033354;28;20049;-50
2023/01/11 07:45:51;;;;;;;3.10;1.48;;;;;;;18.98;44.35;101577.09;5033479;28;20049;-52
2023/01/11 07:48:24;;;;;;;2.33;1.30;;;;;;;18.99;44.46;101585.00;5033320;28;20056;-48
2023/01/11 07:50:52;;;;;;;;;;;;;;;18.99;44.60;101582.31;5033983;28;20052;-50
2023/01/11 07:53:20;;;;;;;6.85;1.55;;;;;;;18.99;44.54;101586.84;5034052;28;19921;-51
2023/01/11 07:55:48;;;;;;;4.65;1.27;;;;;;;18.99;43.76;101585.00;5033291;28;20053;-47
2023/01/11 07:58:15;;;;;;;3.65;1.13;;;;;;;18.99;42.86;101584.16;5038298;28;20048;-50
2023/01/11 08:00:43;;;;;;;5.68;1.73;;;;;;;18.97;40.83;101586.13;5053311;28;20475;-50
2023/01/11 08:03:10;;;;;;;4.75;1.50;;;;;;;18.95;41.00;101596.09;5053203;28;20052;-48
2023/01/11 08:05:39;;;;;;;3.85;1.52;;;;;;;18.94;37.17;101607.78;5052706;28;20041;-48
2023/01/11 08:08:07;;;;;;;3.42;1.40;;;;;;;18.94;38.88;101608.66;5051296;28;20060;-57
2023/01/11 08:10:34;;;;;;;7.75;2.15;;;;;;;18.93;36.14;101608.78;5054808;28;20060;-55
2023/01/11 08:15:48;;;;;;;3.03;1.60;;;;;;;18.91;35.50;101606.19;5056540;28;20045;-51
2023/01/11 08:18:16;;;;;;;4.07;1.48;;;;;;;18.91;35.43;101605.31;5057106;28;20390;-46
2023/01/11 08:20:44;;;;;;;5.13;1.35;;;;;;;18.90;34.94;101601.78;5056889;28;20049;-50
2023/01/11 08:23:11;;;;;;;5.78;2.10;;;;;;;18.88;34.55;101598.38;5056544;28;20045;-47
2023/01/11 08:25:39;;;;;;;4.43;1.90;;;;;;;18.88;34.55;101605.53;5056759;28;20071;-47
2023/01/11 08:28:07;;;;;;;6.60;1.80;;;;;;;18.88;34.75;101597.47;5057106;28;20041;-48
2023/01/11 08:30:35;;;;;;;5.38;1.92;;;;;;;18.88;34.64;101602.84;5056910;28;20060;-48
2023/01/11 08:33:03;;;;;;;5.38;1.73;;;;;;;18.88;34.12;101606.41;5056597;28;20048;-48
2023/01/11 08:35:36;;;;;;;5.38;1.90;;;;;;;18.90;34.28;101611.66;5056660;28;20048;-48
2023/01/11 08:38:04;;;;;;;;;;;;;;;18.89;34.11;101616.19;5057374;28;20055;-51
2023/01/11 08:40:33;;;;;;;3.60;1.77;;;;;;;18.90;34.10;101625.06;5056671;28;19921;-47
2023/01/11 08:43:00;;;;;;;4.63;2.53;;;;;;;18.90;33.94;101633.97;5056014;28;20056;-47
2023/01/11 08:45:28;;;;;;;6.82;2.63;;;;;;;18.91;33.89;101637.50;5056271;28;20139;-49
2023/01/11 08:47:58;;;;;;;7.07;2.20;;;;;;;18.92;35.14;101640.13;5056761;28;20052;-56
2023/01/11 08:50:25;;;;;;;6.55;2.08;;;;;;;18.96;37.79;101648.81;5056326;28;20059;-47
2023/01/11 08:52:54;;;;;;;7.38;2.08;;;;;;;18.99;37.64;101645.88;5055881;28;20053;-46
2023/01/11 08:55:21;;;;;;;6.75;1.75;;;;;;;19.01;38.20;101650.19;5056016;28;20033;-47
2023/01/11 08:57:49;;;;;;;5.90;1.83;;;;;;;19.03;38.12;101648.22;5056341;28;20052;-45
2023/01/11 09:00:16;;;;;;;6.22;2.08;;;;;;;19.07;38.07;101645.34;5056037;28;20052;-50
2023/01/11 09:02:44;;;;;;;6.47;2.00;;;;;;;19.09;38.61;101651.47;5056195;28;20498;-57
2023/01/11 09:05:12;;;;;;;4.57;1.75;;;;;;;19.10;38.25;101658.53;5056147;28;20052;-57
2023/01/11 09:07:39;;;;;;;4.85;1.90;;;;;;;19.11;38.65;101658.41;5055136;28;20057;-54
2023/01/11 09:10:07;;;;;;;3.67;1.90;;;;;;;19.12;38.53;101654.78;5054737;28;20135;-48
2023/01/11 09:12:34;;;;;;;4.00;1.48;;;;;;;19.14;38.62;101652.84;5056003;28;20059;-47
2023/01/11 09:15:04;;;;;;;7.60;1.88;;;;;;;19.14;39.19;101652.84;5055749;28;20045;-46
2023/01/11 09:17:32;;;;;;;6.60;1.58;;;;;;;19.17;39.38;101654.44;5055691;28;20487;-49
2023/01/11 09:20:00;;;;;;;3.75;1.77;;;;;;;19.18;39.26;101654.31;5055765;28;20044;-55
2023/01/11 09:22:27;;;;;;;6.95;2.03;;;;;;;19.19;38.80;101656.03;5055587;28;20049;-55
2023/01/11 09:24:57;;;;;;;6.20;1.88;;;;;;;19.20;38.34;101656.88;5055729;28;20037;-49
2023/01/11 09:27:25;;;;;;;5.68;1.75;;;;;;;19.21;38.46;101655.94;5055587;28;20056;-49
2023/01/11 09:29:53;;;;;;;4.35;1.80;;;;;;;19.21;38.66;101655.94;5055665;28;20048;-48
2023/01/11 09:32:20;;;;;;;3.10;1.48;;;;;;;19.21;38.55;101659.47;5055633;28;20410;-46
2023/01/11 09:34:48;;;;;;;4.05;1.77;;;;;;;19.22;38.89;101660.34;5055476;28;20048;-47
2023/01/11 09:37:16;;;;;;;4.45;1.70;;;;;;;19.22;38.79;101661.19;5055460;28;20052;-47
2023/01/11 09:39:43;;;;;;;4.32;1.45;;;;;;;19.22;39.02;101658.50;5055637;28;20048;-48
2023/01/11 09:42:37;;;;;;;5.95;1.67;;;;;;;19.24;39.24;101670.00;5055325;28;20059;-49
2023/01/11 09:45:10;;;;;;;3.47;1.95;;;;;;;19.23;39.03;101656.69;5055095;28;20041;-49
2023/01/11 09:47:46;;;;;;;5.30;1.80;;;;;;;19.23;37.18;101662.03;5055159;28;20049;-49
2023/01/11 09:50:25;;;;;;;4.75;1.67;;;;;;;19.23;40.30;101654.84;5055349;28;20044;-51
2023/01/11 09:52:57;;;;;;;5.30;1.83;;;;;;;19.23;39.44;101651.31;5055300;28;20048;-50
2023/01/11 09:55:40;;;;;;;3.63;1.67;;;;;;;19.22;39.78;101653.13;5055046;28;20455;-49
2023/01/11 09:58:31;;;;;;;4.72;1.83;;;;;;;19.21;39.61;101654.13;5055492;28;20053;-48
2023/01/11 10:01:12;;;;;;;3.67;1.77;;;;;;;19.22;36.74;101654.97;5055170;28;20045;-49
2023/01/11 10:04:12;;;;;;;4.45;1.98;;;;;;;19.22;36.42;101655.81;5054874;28;20099;-48
2023/01/11 10:06:59;;;;;;;3.22;1.67;;;;;;;19.23;38.31;101654.84;5054304;28;20049;-49
2023/01/11 10:09:27;;;;;;;4.47;1.48;;;;;;;19.24;38.97;101659.25;5055108;28;20049;-47
2023/01/11 10:12:42;;;;;;;4.75;1.67;;;;;;;19.24;38.59;101651.22;5054781;28;20467;-47
2023/01/11 10:15:37;;;;;;;7.25;1.83;;;;;;;19.25;39.32;101650.25;5054655;28;20510;-52
2023/01/11 10:18:36;;;;;;;5.63;2.45;;;;;;;19.26;38.19;101645.72;5055090;28;20387;-50
2023/01/11 10:21:46;;;;;;;3.40;1.83;;;;;;;19.26;38.11;101643.03;5054540;28;20049;-45
2023/01/11 10:24:20;;;;;;;5.95;2.10;;;;;;;19.26;38.05;101638.53;5054719;28;20052;-48
2023/01/11 10:26:49;;;;;;;4.85;2.10;;;;;;;19.26;38.17;101640.34;5054631;28;20053;-47
2023/01/11 10:29:41;;;;;;;5.03;2.00;;;;;;;19.26;38.24;101643.03;5054761;28;20044;-50
2023/01/11 10:38:42;;;;;;;6.78;2.40;;;;;;;19.30;40.33;101643.69;5054650;28;20045;-48
2023/01/11 10:41:24;;;;;;;3.72;1.70;;;;;;;19.32;39.88;101626.47;5054111;28;20661;-50
2023/01/11 10:44:03;;;;;;;4.35;2.08;;;;;;;19.32;39.11;101631.84;5054297;28;20052;-47
2023/01/11 10:46:35;;;;;;;4.18;1.90;;;;;;;19.32;39.38;101618.41;5054109;28;20059;-45
2023/01/11 10:49:24;;;;;;;4.40;1.75;;;;;;;19.33;39.50;101614.78;5054374;28;20056;-50
2023/01/11 10:51:56;;;;;;;3.05;1.75;;;;;;;19.33;39.56;101611.25;5054081;28;20569;-51
2023/01/11 10:54:33;;;;;;;3.80;1.65;;;;;;;19.35;40.18;101617.34;5053967;28;20048;-48
2023/01/11 10:57:01;;;;;;;3.55;1.90;;;;;;;19.35;40.27;101606.59;5053752;28;20525;-45
2023/01/11 11:00:13;;;;;;;3.95;1.77;;;;;;;19.35;39.92;101601.22;5053562;28;20048;-55
2023/01/11 11:03:34;;;;;;;3.10;1.50;;;;;;;19.36;40.57;101606.47;5052403;28;20071;-48
2023/01/11 11:06:26;;;;;;;3.35;1.60;;;;;;;19.36;39.89;101594.88;5051521;28;20055;-50
2023/01/11 11:09:09;;;;;;;3.83;1.70;;;;;;;19.36;40.19;101600.25;5053632;28;20041;-51
2023/01/11 11:11:58;;;;;;;4.75;2.10;;;;;;;19.36;40.08;101595.72;5053704;28;20096;-55
2023/01/11 11:14:50;;;;;;;3.47;1.85;;;;;;;19.36;39.60;101602.94;5053607;28;20040;-51
2023/01/11 11:17:30;;;;;;;4.20;2.00;;;;;;;19.36;40.04;101593.06;5053625;28;20059;-58
2023/01/11 11:19:58;;;;;;;4.72;2.20;;;;;;;19.36;39.90;101589.50;5053840;28;20045;-58
2023/01/11 11:22:25;;;;;;;4.18;2.60;;;;;;;19.36;39.94;101585.00;5052756;28;20048;-58
2023/01/11 11:25:03;;;;;;;3.50;1.95;;;;;;;19.37;40.23;101586.72;5053408;28;20048;-59
2023/01/11 11:27:40;;;;;;;5.38;1.85;;;;;;;19.37;39.71;101585.88;5053558;28;20049;-48
2023/01/11 11:30:13;;;;;;;6.28;2.08;;;;;;;19.38;39.98;101590.28;5053503;28;20052;-53
2023/01/11 11:32:51;;;;;;;3.80;2.08;;;;;;;19.37;39.78;101581.38;5053416;28;20048;-56
2023/01/11 11:35:33;;;;;;;5.18;2.45;;;;;;;19.39;39.77;101578.56;5053329;28;20049;-58
2023/01/11 11:38:01;;;;;;;5.38;1.90;;;;;;;19.38;39.87;101577.69;5053637;28;20045;-52
2023/01/11 11:40:37;;;;;;;7.20;2.97;;;;;;;19.40;39.63;101577.56;5053212;28;20049;-58
2023/01/11 11:43:18;;;;;;;3.50;2.38;;;;;;;19.39;39.56;101563.28;5053152;28;20400;-58
2023/01/11 11:45:57;;;;;;;4.03;2.25;;;;;;;19.39;39.72;101562.44;5053046;28;20048;-55
2023/01/11 11:48:28;;;;;;;4.63;2.40;;;;;;;19.38;39.73;101553.53;5053557;28;20049;-56
2023/01/11 11:50:59;;;;;;;3.50;1.75;;;;;;;19.39;40.47;101554.38;5053298;28;20060;-58
2023/01/11 11:53:32;;;;;;;7.20;2.50;;;;;;;19.40;40.35;101551.56;5052206;28;20052;-57
2023/01/11 11:56:16;;;;;;;4.97;2.30;;;;;;;19.40;39.69;101545.34;5052594;28;20056;-57
2023/01/11 11:58:44;;;;;;;4.60;2.35;;;;;;;19.40;39.72;101548.88;5052154;28;20468;-56
2023/01/11 12:01:26;;;;;;;4.93;2.33;;;;;;;19.40;39.64;101546.19;5053146;28;20056;-58
2023/01/11 12:03:58;;;;;;;5.00;2.33;;;;;;;19.41;39.69;101536.34;5053174;28;20045;-50
2023/01/11 12:06:27;;;;;;;5.97;2.50;;;;;;;19.42;39.92;101538.06;5053068;28;20052;-55
2023/01/11 12:08:59;;;;;;;4.97;2.15;;;;;;;19.41;40.01;101544.41;5053098;28;20045;-48
2023/01/11 12:11:33;;;;;;;8.40;3.67;;;;;;;19.41;39.81;101539.88;5053154;28;20060;-49
2023/01/11 12:14:10;;;;;;;5.18;2.17;;;;;;;19.42;39.81;101536.22;5053058;28;20402;-48
2023/01/11 12:16:39;;;;;;;3.67;2.20;;;;;;;19.43;40.11;101539.75;5053116;28;20048;-47
2023/01/11 12:19:37;;;;;;;3.97;2.10;;;;;;;19.43;40.10;101529.00;5053239;28;20056;-48